MST,Max TemperatureF,Mean TemperatureF,Min TemperatureF,Max Dew PointF,MeanDew PointF,Min DewpointF,Max Humidity, Mean Humidity, Min Humidity, Max Sea Level PressureIn, Mean Sea Level PressureIn, Min Sea Level PressureIn, Max VisibilityMiles, Mean VisibilityMiles, Min VisibilityMiles, Max Wind SpeedMPH, Mean Wind SpeedMPH, Max Gust SpeedMPH,PrecipitationIn, CloudCover, Events, WindDirDegrees
2013-11-1,79,64,50,35,31,27,53,32,15,30.14,30.04,29.99,10,10,10,6,1,,0.00,0,,324
2013-11-2,84,68,52,36,26,18,45,23,8,29.99,29.89,29.79,10,10,10,10,3,17,0.00,0,,135
2013-11-3,79,69,59,46,34,27,42,29,15,29.82,29.76,29.70,10,10,10,7,2,,0.00,1,,186
2013-11-4,77,65,53,46,38,32,55,37,20,29.81,29.73,29.67,10,10,10,13,2,22,0.00,1,Thunderstorm,180
2013-11-5,72,63,54,46,43,39,69,50,33,30.10,29.97,29.80,10,10,2,7,1,,0.00,1,,264
2013-11-6,75,62,48,32,17,7,47,21,7,30.25,30.18,30.11,10,10,10,7,1,,0.00,0,,304
2013-11-7,82,66,51,27,15,8,29,16,6,30.18,30.09,30.01,10,10,10,9,2,,0.00,0,,70
2013-11-8,82,68,54,38,32,28,42,29,15,30.05,29.98,29.91,10,10,10,6,1,,0.00,0,,220
2013-11-9,82,68,53,37,35,31,55,33,16,30.07,30.01,29.96,10,10,10,6,1,,0.00,0,,85
2013-11-10,81,68,55,39,37,33,51,34,18,30.09,30.02,29.98,10,10,10,5,1,,0.00,0,,295
2013-11-11,89,72,55,41,36,22,55,29,13,30.05,29.99,29.93,10,10,10,8,1,,0.00,0,,297
2013-11-12,88,74,61,39,31,21,30,20,10,30.14,30.07,30.02,10,10,10,17,6,26,0.00,0,,85
2013-11-13,82,74,64,45,41,36,50,31,23,30.10,30.02,29.93,10,10,10,12,7,21,0.00,0,,114
2013-11-14,79,68,57,45,44,42,60,42,28,29.98,29.89,29.76,10,10,10,6,1,,0.00,0,,183
2013-11-15,79,69,59,51,44,38,59,43,24,29.76,29.65,29.53,10,10,9,12,3,20,0.00,1,,225
2013-11-16,69,64,60,53,49,42,75,60,42,29.88,29.77,29.66,10,10,10,10,2,,0.00,5,,184
2013-11-17,71,62,54,47,45,42,72,54,39,30.04,29.98,29.88,10,10,10,6,1,,0.00,0,,143
2013-11-18,78,66,54,46,44,43,69,48,30,30.06,29.99,29.93,10,10,10,6,2,,0.00,1,,271
2013-11-19,75,65,55,46,45,44,69,50,34,29.95,29.88,29.81,10,10,10,8,1,,0.00,0,,240
2013-11-20,71,65,57,47,45,44,64,52,38,29.86,29.82,29.77,10,10,10,5,1,,0.00,3,,195
2013-11-21,68,62,55,56,46,42,93,57,45,29.90,29.86,29.83,10,10,3,8,1,,0.37,5,Rain,92
2013-11-22,57,54,51,56,53,50,100,94,84,29.99,29.89,29.77,10,6,2,14,5,23,1.64,8,Rain,266
2013-11-23,55,52,50,52,46,40,100,79,55,30.06,30.01,29.93,10,8,2,13,4,22,0.43,8,Rain,102
2013-11-24,57,52,46,47,41,38,89,65,49,30.15,30.11,30.06,10,10,10,8,2,,0.01,5,Rain,112
2013-11-25,61,52,43,44,41,40,89,69,46,30.22,30.17,30.13,10,10,10,6,1,,0.00,0,,267
2013-11-26,68,57,46,44,37,26,89,50,25,30.27,30.20,30.14,10,10,10,16,4,25,0.00,0,,74
2013-11-27,66,60,53,33,28,24,47,30,21,30.14,30.05,29.98,10,10,10,12,6,20,0.00,0,,84
2013-11-28,70,58,46,38,33,27,59,41,21,30.06,30.01,29.97,10,10,10,9,1,,0.00,0,,156
2013-11-29,72,59,46,44,39,37,74,52,28,30.15,30.09,30.04,10,10,10,4,1,,0.00,0,,231
2013-11-30,71,60,48,46,43,41,83,59,35,30.16,30.10,30.04,10,10,10,5,1,,0.00,0,,273